sensor_id;sensor_type;location;lat;lon;timestamp;P1;durP1;ratioP1;P2;durP2;ratioP2
12155;SDS011;6141;49.092;8.516;2023-12-29T00:00:01;6.53;;;4.30;;
12155;SDS011;6141;49.092;8.516;2023-12-29T00:02:31;5.60;;;4.40;;
12155;SDS011;6141;49.092;8.516;2023-12-29T00:05:01;5.20;;;4.50;;
12155;SDS011;6141;49.092;8.516;2023-12-29T00:07:29;5.27;;;4.20;;
12155;SDS011;6141;49.092;8.516;2023-12-29T00:09:57;4.83;;;4.40;;
12155;SDS011;6141;49.092;8.516;2023-12-29T00:12:26;4.37;;;3.97;;
12155;SDS011;6141;49.092;8.516;2023-12-29T00:14:54;4.60;;;4.20;;
12155;SDS011;6141;49.092;8.516;2023-12-29T00:17:22;4.87;;;4.37;;
12155;SDS011;6141;49.092;8.516;2023-12-29T00:19:50;4.53;;;4.13;;
12155;SDS011;6141;49.092;8.516;2023-12-29T00:22:21;4.87;;;4.40;;
12155;SDS011;6141;49.092;8.516;2023-12-29T00:24:51;4.80;;;4.40;;
12155;SDS011;6141;49.092;8.516;2023-12-29T00:27:19;5.30;;;4.70;;
12155;SDS011;6141;49.092;8.516;2023-12-29T00:29:47;5.03;;;4.63;;
12155;SDS011;6141;49.092;8.516;2023-12-29T00:32:16;5.53;;;4.50;;
12155;SDS011;6141;49.092;8.516;2023-12-29T00:34:44;5.80;;;4.63;;
12155;SDS011;6141;49.092;8.516;2023-12-29T00:37:12;5.20;;;4.70;;
12155;SDS011;6141;49.092;8.516;2023-12-29T00:39:42;5.37;;;4.87;;
12155;SDS011;6141;49.092;8.516;2023-12-29T00:42:10;8.03;;;4.93;;
12155;SDS011;6141;49.092;8.516;2023-12-29T00:44:39;4.90;;;4.50;;
12155;SDS011;6141;49.092;8.516;2023-12-29T00:47:07;5.10;;;4.60;;
12155;SDS011;6141;49.092;8.516;2023-12-29T00:49:37;4.93;;;4.40;;
12155;SDS011;6141;49.092;8.516;2023-12-29T00:52:06;4.83;;;4.40;;
12155;SDS011;6141;49.092;8.516;2023-12-29T00:54:35;5.63;;;5.10;;
12155;SDS011;6141;49.092;8.516;2023-12-29T00:57:04;6.00;;;5.20;;
12155;SDS011;6141;49.092;8.516;2023-12-29T00:59:32;5.43;;;4.93;;
12155;SDS011;6141;49.092;8.516;2023-12-29T01:02:06;5.90;;;5.30;;
12155;SDS011;6141;49.092;8.516;2023-12-29T01:04:36;7.37;;;4.83;;
12155;SDS011;6141;49.092;8.516;2023-12-29T01:07:05;5.40;;;4.90;;
12155;SDS011;6141;49.092;8.516;2023-12-29T01:09:36;5.00;;;4.60;;
12155;SDS011;6141;49.092;8.516;2023-12-29T01:12:09;5.97;;;4.97;;
12155;SDS011;6141;49.092;8.516;2023-12-29T01:14:37;5.90;;;4.87;;
12155;SDS011;6141;49.092;8.516;2023-12-29T01:17:05;6.30;;;5.13;;
12155;SDS011;6141;49.092;8.516;2023-12-29T01:19:34;5.77;;;5.27;;
12155;SDS011;6141;49.092;8.516;2023-12-29T01:22:02;7.00;;;5.67;;
12155;SDS011;6141;49.092;8.516;2023-12-29T01:24:31;5.80;;;5.30;;
12155;SDS011;6141;49.092;8.516;2023-12-29T01:27:12;5.80;;;5.23;;
12155;SDS011;6141;49.092;8.516;2023-12-29T01:29:40;6.27;;;5.67;;
12155;SDS011;6141;49.092;8.516;2023-12-29T01:32:08;6.90;;;5.03;;
12155;SDS011;6141;49.092;8.516;2023-12-29T01:34:37;6.13;;;5.53;;
12155;SDS011;6141;49.092;8.516;2023-12-29T01:37:05;5.97;;;5.40;;
12155;SDS011;6141;49.092;8.516;2023-12-29T01:39:33;7.40;;;5.40;;
12155;SDS011;6141;49.092;8.516;2023-12-29T01:42:02;6.13;;;5.10;;
12155;SDS011;6141;49.092;8.516;2023-12-29T01:44:31;6.70;;;5.80;;
12155;SDS011;6141;49.092;8.516;2023-12-29T01:47:00;5.50;;;5.00;;
12155;SDS011;6141;49.092;8.516;2023-12-29T01:49:33;6.47;;;5.50;;
12155;SDS011;6141;49.092;8.516;2023-12-29T01:52:02;6.00;;;5.20;;
12155;SDS011;6141;49.092;8.516;2023-12-29T01:54:32;5.93;;;5.33;;
12155;SDS011;6141;49.092;8.516;2023-12-29T01:57:02;5.87;;;5.30;;
12155;SDS011;6141;49.092;8.516;2023-12-29T01:59:33;5.40;;;4.90;;
12155;SDS011;6141;49.092;8.516;2023-12-29T02:02:02;5.50;;;5.00;;
12155;SDS011;6141;49.092;8.516;2023-12-29T02:04:31;5.80;;;5.20;;
12155;SDS011;6141;49.092;8.516;2023-12-29T02:06:59;5.90;;;5.10;;
12155;SDS011;6141;49.092;8.516;2023-12-29T02:09:27;5.43;;;4.90;;
12155;SDS011;6141;49.092;8.516;2023-12-29T02:11:56;6.73;;;5.00;;
12155;SDS011;6141;49.092;8.516;2023-12-29T02:14:24;6.97;;;5.10;;
12155;SDS011;6141;49.092;8.516;2023-12-29T02:16:56;5.40;;;4.90;;
12155;SDS011;6141;49.092;8.516;2023-12-29T02:19:38;5.90;;;5.30;;
12155;SDS011;6141;49.092;8.516;2023-12-29T02:22:08;5.00;;;4.50;;
12155;SDS011;6141;49.092;8.516;2023-12-29T02:24:37;5.40;;;4.90;;
12155;SDS011;6141;49.092;8.516;2023-12-29T02:27:10;5.47;;;4.97;;
12155;SDS011;6141;49.092;8.516;2023-12-29T02:29:44;5.17;;;4.67;;
12155;SDS011;6141;49.092;8.516;2023-12-29T02:32:19;5.77;;;5.10;;
12155;SDS011;6141;49.092;8.516;2023-12-29T02:34:50;5.47;;;4.97;;
12155;SDS011;6141;49.092;8.516;2023-12-29T02:37:20;5.93;;;5.17;;
12155;SDS011;6141;49.092;8.516;2023-12-29T02:39:50;5.10;;;4.57;;
12155;SDS011;6141;49.092;8.516;2023-12-29T02:42:20;5.10;;;4.30;;
12155;SDS011;6141;49.092;8.516;2023-12-29T02:44:48;4.97;;;4.50;;
12155;SDS011;6141;49.092;8.516;2023-12-29T02:47:16;4.60;;;4.30;;
12155;SDS011;6141;49.092;8.516;2023-12-29T02:49:46;4.70;;;4.30;;
12155;SDS011;6141;49.092;8.516;2023-12-29T02:52:17;5.43;;;4.30;;
12155;SDS011;6141;49.092;8.516;2023-12-29T02:54:45;5.07;;;3.93;;
12155;SDS011;6141;49.092;8.516;2023-12-29T02:57:14;4.57;;;4.07;;
12155;SDS011;6141;49.092;8.516;2023-12-29T02:59:43;4.50;;;4.10;;
12155;SDS011;6141;49.092;8.516;2023-12-29T03:02:11;4.50;;;4.10;;
12155;SDS011;6141;49.092;8.516;2023-12-29T03:04:39;4.43;;;4.03;;
12155;SDS011;6141;49.092;8.516;2023-12-29T03:07:08;4.30;;;3.90;;
12155;SDS011;6141;49.092;8.516;2023-12-29T03:09:37;5.03;;;4.00;;
12155;SDS011;6141;49.092;8.516;2023-12-29T03:12:05;5.17;;;4.40;;
12155;SDS011;6141;49.092;8.516;2023-12-29T03:14:33;4.93;;;4.20;;
12155;SDS011;6141;49.092;8.516;2023-12-29T03:17:03;4.30;;;3.90;;
12155;SDS011;6141;49.092;8.516;2023-12-29T03:19:32;4.47;;;4.07;;
12155;SDS011;6141;49.092;8.516;2023-12-29T03:22:00;4.73;;;4.00;;
12155;SDS011;6141;49.092;8.516;2023-12-29T03:24:30;4.03;;;3.63;;
12155;SDS011;6141;49.092;8.516;2023-12-29T03:26:58;3.87;;;3.50;;
12155;SDS011;6141;49.092;8.516;2023-12-29T03:29:26;4.13;;;3.50;;
12155;SDS011;6141;49.092;8.516;2023-12-29T03:31:54;5.17;;;3.50;;
12155;SDS011;6141;49.092;8.516;2023-12-29T03:34:23;4.00;;;3.60;;
12155;SDS011;6141;49.092;8.516;2023-12-29T03:36:52;4.60;;;3.60;;
12155;SDS011;6141;49.092;8.516;2023-12-29T03:39:20;3.90;;;3.20;;
12155;SDS011;6141;49.092;8.516;2023-12-29T03:41:49;3.60;;;3.30;;
12155;SDS011;6141;49.092;8.516;2023-12-29T03:44:17;3.53;;;3.23;;
12155;SDS011;6141;49.092;8.516;2023-12-29T03:46:47;3.50;;;3.20;;
12155;SDS011;6141;49.092;8.516;2023-12-29T03:49:17;4.63;;;2.80;;
12155;SDS011;6141;49.092;8.516;2023-12-29T03:51:47;4.30;;;2.87;;
12155;SDS011;6141;49.092;8.516;2023-12-29T03:54:18;3.83;;;2.90;;
12155;SDS011;6141;49.092;8.516;2023-12-29T03:56:47;3.30;;;3.00;;
12155;SDS011;6141;49.092;8.516;2023-12-29T03:59:16;3.50;;;3.20;;
12155;SDS011;6141;49.092;8.516;2023-12-29T04:01:44;3.80;;;3.33;;
12155;SDS011;6141;49.092;8.516;2023-12-29T04:04:12;3.90;;;3.43;;
12155;SDS011;6141;49.092;8.516;2023-12-29T04:06:40;3.70;;;3.30;;
12155;SDS011;6141;49.092;8.516;2023-12-29T04:09:10;4.10;;;3.70;;
12155;SDS011;6141;49.092;8.516;2023-12-29T04:11:38;3.90;;;3.60;;
12155;SDS011;6141;49.092;8.516;2023-12-29T04:14:06;3.77;;;3.47;;
12155;SDS011;6141;49.092;8.516;2023-12-29T04:16:36;4.13;;;3.73;;
12155;SDS011;6141;49.092;8.516;2023-12-29T04:19:06;3.80;;;3.50;;
12155;SDS011;6141;49.092;8.516;2023-12-29T04:21:35;4.73;;;3.80;;
12155;SDS011;6141;49.092;8.516;2023-12-29T04:24:03;4.20;;;3.80;;
12155;SDS011;6141;49.092;8.516;2023-12-29T04:26:36;3.90;;;3.60;;
12155;SDS011;6141;49.092;8.516;2023-12-29T04:29:04;4.27;;;3.87;;
12155;SDS011;6141;49.092;8.516;2023-12-29T04:31:33;5.17;;;3.90;;
12155;SDS011;6141;49.092;8.516;2023-12-29T04:34:01;3.90;;;3.43;;
12155;SDS011;6141;49.092;8.516;2023-12-29T04:36:30;4.30;;;3.47;;
12155;SDS011;6141;49.092;8.516;2023-12-29T04:38:58;4.30;;;3.90;;
12155;SDS011;6141;49.092;8.516;2023-12-29T04:41:26;4.33;;;3.80;;
12155;SDS011;6141;49.092;8.516;2023-12-29T04:43:56;3.70;;;3.40;;
12155;SDS011;6141;49.092;8.516;2023-12-29T04:46:24;3.90;;;3.60;;
12155;SDS011;6141;49.092;8.516;2023-12-29T04:48:52;4.63;;;3.80;;
12155;SDS011;6141;49.092;8.516;2023-12-29T04:51:21;3.83;;;3.43;;
12155;SDS011;6141;49.092;8.516;2023-12-29T04:53:49;3.37;;;3.13;;
12155;SDS011;6141;49.092;8.516;2023-12-29T04:56:17;3.83;;;3.53;;
12155;SDS011;6141;49.092;8.516;2023-12-29T04:58:46;4.10;;;3.70;;
12155;SDS011;6141;49.092;8.516;2023-12-29T05:01:15;4.53;;;4.13;;
12155;SDS011;6141;49.092;8.516;2023-12-29T05:03:43;5.27;;;4.60;;
12155;SDS011;6141;49.092;8.516;2023-12-29T05:06:11;4.73;;;4.13;;
12155;SDS011;6141;49.092;8.516;2023-12-29T05:08:40;4.53;;;4.13;;
12155;SDS011;6141;49.092;8.516;2023-12-29T05:11:08;5.93;;;4.73;;
12155;SDS011;6141;49.092;8.516;2023-12-29T05:13:37;5.20;;;4.70;;
12155;SDS011;6141;49.092;8.516;2023-12-29T05:16:05;5.03;;;4.53;;
12155;SDS011;6141;49.092;8.516;2023-12-29T05:18:35;4.93;;;4.30;;
12155;SDS011;6141;49.092;8.516;2023-12-29T05:21:04;5.63;;;5.10;;
12155;SDS011;6141;49.092;8.516;2023-12-29T05:23:32;4.87;;;4.33;;
12155;SDS011;6141;49.092;8.516;2023-12-29T05:26:01;4.63;;;4.23;;
12155;SDS011;6141;49.092;8.516;2023-12-29T05:28:29;5.57;;;5.07;;
12155;SDS011;6141;49.092;8.516;2023-12-29T05:30:57;5.23;;;4.73;;
12155;SDS011;6141;49.092;8.516;2023-12-29T05:33:30;4.83;;;4.43;;
12155;SDS011;6141;49.092;8.516;2023-12-29T05:36:05;5.23;;;4.77;;
12155;SDS011;6141;49.092;8.516;2023-12-29T05:38:34;4.97;;;4.47;;
12155;SDS011;6141;49.092;8.516;2023-12-29T05:41:03;5.03;;;4.50;;
12155;SDS011;6141;49.092;8.516;2023-12-29T05:43:38;4.90;;;4.50;;
12155;SDS011;6141;49.092;8.516;2023-12-29T05:46:08;4.80;;;4.40;;
12155;SDS011;6141;49.092;8.516;2023-12-29T05:48:37;5.53;;;5.00;;
12155;SDS011;6141;49.092;8.516;2023-12-29T05:51:16;5.20;;;4.70;;
12155;SDS011;6141;49.092;8.516;2023-12-29T05:53:44;5.60;;;5.10;;
12155;SDS011;6141;49.092;8.516;2023-12-29T05:56:13;5.30;;;4.70;;
12155;SDS011;6141;49.092;8.516;2023-12-29T05:58:42;5.53;;;4.90;;
12155;SDS011;6141;49.092;8.516;2023-12-29T06:01:10;5.27;;;4.77;;
12155;SDS011;6141;49.092;8.516;2023-12-29T06:03:39;5.17;;;4.57;;
12155;SDS011;6141;49.092;8.516;2023-12-29T06:06:07;5.30;;;4.77;;
12155;SDS011;6141;49.092;8.516;2023-12-29T06:08:37;4.90;;;4.50;;
12155;SDS011;6141;49.092;8.516;2023-12-29T06:11:05;6.10;;;4.73;;
12155;SDS011;6141;49.092;8.516;2023-12-29T06:13:34;5.03;;;4.60;;
12155;SDS011;6141;49.092;8.516;2023-12-29T06:16:02;5.50;;;4.37;;
12155;SDS011;6141;49.092;8.516;2023-12-29T06:18:31;4.53;;;4.13;;
12155;SDS011;6141;49.092;8.516;2023-12-29T06:21:01;5.17;;;4.67;;
12155;SDS011;6141;49.092;8.516;2023-12-29T06:23:30;5.00;;;4.50;;
12155;SDS011;6141;49.092;8.516;2023-12-29T06:25:59;5.47;;;4.53;;
12155;SDS011;6141;49.092;8.516;2023-12-29T06:28:27;6.67;;;4.90;;
12155;SDS011;6141;49.092;8.516;2023-12-29T06:30:56;5.83;;;4.50;;
12155;SDS011;6141;49.092;8.516;2023-12-29T06:33:25;4.87;;;4.37;;
12155;SDS011;6141;49.092;8.516;2023-12-29T06:35:52;5.83;;;4.43;;
12155;SDS011;6141;49.092;8.516;2023-12-29T06:38:20;5.23;;;4.73;;
12155;SDS011;6141;49.092;8.516;2023-12-29T06:40:48;4.20;;;3.90;;
12155;SDS011;6141;49.092;8.516;2023-12-29T06:43:18;4.40;;;4.00;;
12155;SDS011;6141;49.092;8.516;2023-12-29T06:45:46;4.70;;;4.30;;
12155;SDS011;6141;49.092;8.516;2023-12-29T06:48:14;4.53;;;4.17;;
12155;SDS011;6141;49.092;8.516;2023-12-29T06:50:44;4.57;;;4.17;;
12155;SDS011;6141;49.092;8.516;2023-12-29T06:53:13;4.60;;;4.20;;
12155;SDS011;6141;49.092;8.516;2023-12-29T06:55:41;4.50;;;4.10;;
12155;SDS011;6141;49.092;8.516;2023-12-29T06:58:09;4.53;;;4.13;;
12155;SDS011;6141;49.092;8.516;2023-12-29T07:00:39;4.77;;;4.37;;
12155;SDS011;6141;49.092;8.516;2023-12-29T07:03:12;5.20;;;4.70;;
12155;SDS011;6141;49.092;8.516;2023-12-29T07:05:41;4.27;;;3.90;;
12155;SDS011;6141;49.092;8.516;2023-12-29T07:08:12;4.43;;;4.03;;
12155;SDS011;6141;49.092;8.516;2023-12-29T07:10:40;5.27;;;4.67;;
12155;SDS011;6141;49.092;8.516;2023-12-29T07:13:09;4.80;;;4.30;;
12155;SDS011;6141;49.092;8.516;2023-12-29T07:15:37;4.80;;;4.30;;
12155;SDS011;6141;49.092;8.516;2023-12-29T07:18:07;5.23;;;4.73;;
12155;SDS011;6141;49.092;8.516;2023-12-29T07:20:36;6.57;;;4.60;;
12155;SDS011;6141;49.092;8.516;2023-12-29T07:23:04;4.80;;;4.40;;
12155;SDS011;6141;49.092;8.516;2023-12-29T07:25:32;6.47;;;4.30;;
12155;SDS011;6141;49.092;8.516;2023-12-29T07:28:00;4.70;;;4.30;;
12155;SDS011;6141;49.092;8.516;2023-12-29T07:30:29;4.90;;;4.50;;
12155;SDS011;6141;49.092;8.516;2023-12-29T07:32:59;5.50;;;4.33;;
12155;SDS011;6141;49.092;8.516;2023-12-29T07:35:29;4.97;;;4.27;;
12155;SDS011;6141;49.092;8.516;2023-12-29T07:37:57;4.60;;;4.03;;
12155;SDS011;6141;49.092;8.516;2023-12-29T07:40:26;4.70;;;4.30;;
12155;SDS011;6141;49.092;8.516;2023-12-29T07:42:54;4.70;;;4.30;;
12155;SDS011;6141;49.092;8.516;2023-12-29T07:45:22;4.60;;;4.20;;
12155;SDS011;6141;49.092;8.516;2023-12-29T07:47:51;4.80;;;4.37;;
12155;SDS011;6141;49.092;8.516;2023-12-29T07:50:20;5.03;;;4.23;;
12155;SDS011;6141;49.092;8.516;2023-12-29T07:52:50;4.90;;;4.40;;
12155;SDS011;6141;49.092;8.516;2023-12-29T07:55:19;4.70;;;4.30;;
12155;SDS011;6141;49.092;8.516;2023-12-29T07:57:47;5.60;;;4.13;;
12155;SDS011;6141;49.092;8.516;2023-12-29T08:00:15;4.40;;;4.00;;
12155;SDS011;6141;49.092;8.516;2023-12-29T08:02:44;4.20;;;3.47;;
12155;SDS011;6141;49.092;8.516;2023-12-29T08:05:12;4.77;;;4.37;;
12155;SDS011;6141;49.092;8.516;2023-12-29T08:07:43;4.57;;;4.17;;
12155;SDS011;6141;49.092;8.516;2023-12-29T08:10:11;4.30;;;3.90;;
12155;SDS011;6141;49.092;8.516;2023-12-29T08:12:39;5.20;;;4.17;;
12155;SDS011;6141;49.092;8.516;2023-12-29T08:15:07;4.70;;;4.30;;
12155;SDS011;6141;49.092;8.516;2023-12-29T08:17:39;5.00;;;4.50;;
12155;SDS011;6141;49.092;8.516;2023-12-29T08:20:07;4.63;;;4.23;;
12155;SDS011;6141;49.092;8.516;2023-12-29T08:22:36;4.53;;;4.10;;
12155;SDS011;6141;49.092;8.516;2023-12-29T08:25:06;4.60;;;4.20;;
12155;SDS011;6141;49.092;8.516;2023-12-29T08:27:35;4.10;;;3.70;;
12155;SDS011;6141;49.092;8.516;2023-12-29T08:30:03;4.27;;;3.70;;
12155;SDS011;6141;49.092;8.516;2023-12-29T08:32:32;4.23;;;3.83;;
12155;SDS011;6141;49.092;8.516;2023-12-29T08:35:01;4.30;;;3.90;;
12155;SDS011;6141;49.092;8.516;2023-12-29T08:37:29;4.27;;;3.20;;
12155;SDS011;6141;49.092;8.516;2023-12-29T08:39:59;3.97;;;3.57;;
12155;SDS011;6141;49.092;8.516;2023-12-29T08:42:29;3.90;;;3.50;;
12155;SDS011;6141;49.092;8.516;2023-12-29T08:44:58;5.70;;;4.07;;
12155;SDS011;6141;49.092;8.516;2023-12-29T08:47:26;3.70;;;3.30;;
12155;SDS011;6141;49.092;8.516;2023-12-29T08:49:54;3.97;;;3.60;;
12155;SDS011;6141;49.092;8.516;2023-12-29T08:52:22;7.20;;;3.77;;
12155;SDS011;6141;49.092;8.516;2023-12-29T08:54:50;3.67;;;3.37;;
12155;SDS011;6141;49.092;8.516;2023-12-29T08:57:19;3.37;;;3.10;;
12155;SDS011;6141;49.092;8.516;2023-12-29T08:59:49;3.83;;;3.43;;
12155;SDS011;6141;49.092;8.516;2023-12-29T09:02:17;3.40;;;3.10;;
12155;SDS011;6141;49.092;8.516;2023-12-29T09:04:45;3.47;;;3.17;;
12155;SDS011;6141;49.092;8.516;2023-12-29T09:07:13;3.77;;;3.47;;
12155;SDS011;6141;49.092;8.516;2023-12-29T09:09:42;4.30;;;3.30;;
12155;SDS011;6141;49.092;8.516;2023-12-29T09:12:10;4.70;;;3.30;;
12155;SDS011;6141;49.092;8.516;2023-12-29T09:14:38;3.30;;;3.00;;
12155;SDS011;6141;49.092;8.516;2023-12-29T09:17:08;3.57;;;3.27;;
12155;SDS011;6141;49.092;8.516;2023-12-29T09:19:36;3.23;;;3.03;;
12155;SDS011;6141;49.092;8.516;2023-12-29T09:22:06;6.23;;;3.33;;
12155;SDS011;6141;49.092;8.516;2023-12-29T09:24:35;3.30;;;3.00;;
12155;SDS011;6141;49.092;8.516;2023-12-29T09:27:03;4.43;;;3.03;;
12155;SDS011;6141;49.092;8.516;2023-12-29T09:29:31;3.67;;;3.10;;
12155;SDS011;6141;49.092;8.516;2023-12-29T09:31:59;3.93;;;3.07;;
12155;SDS011;6141;49.092;8.516;2023-12-29T09:34:29;3.70;;;2.70;;
12155;SDS011;6141;49.092;8.516;2023-12-29T09:36:58;3.20;;;2.90;;
12155;SDS011;6141;49.092;8.516;2023-12-29T09:39:26;3.03;;;2.73;;
12155;SDS011;6141;49.092;8.516;2023-12-29T09:41:57;3.13;;;2.73;;
12155;SDS011;6141;49.092;8.516;2023-12-29T09:44:27;3.30;;;2.80;;
12155;SDS011;6141;49.092;8.516;2023-12-29T09:46:57;3.30;;;3.00;;
12155;SDS011;6141;49.092;8.516;2023-12-29T09:49:33;2.90;;;2.70;;
12155;SDS011;6141;49.092;8.516;2023-12-29T09:52:05;4.13;;;2.87;;
12155;SDS011;6141;49.092;8.516;2023-12-29T09:54:34;2.67;;;2.47;;
12155;SDS011;6141;49.092;8.516;2023-12-29T09:57:04;4.83;;;2.30;;
12155;SDS011;6141;49.092;8.516;2023-12-29T09:59:33;3.40;;;2.30;;
12155;SDS011;6141;49.092;8.516;2023-12-29T10:02:04;2.30;;;2.10;;
12155;SDS011;6141;49.092;8.516;2023-12-29T10:04:35;3.23;;;2.27;;
12155;SDS011;6141;49.092;8.516;2023-12-29T10:07:03;2.80;;;2.37;;
12155;SDS011;6141;49.092;8.516;2023-12-29T10:09:35;2.73;;;2.13;;
12155;SDS011;6141;49.092;8.516;2023-12-29T10:12:05;2.60;;;1.97;;
12155;SDS011;6141;49.092;8.516;2023-12-29T10:14:45;3.03;;;2.07;;
12155;SDS011;6141;49.092;8.516;2023-12-29T10:17:19;2.57;;;2.13;;
12155;SDS011;6141;49.092;8.516;2023-12-29T10:19:58;2.20;;;2.00;;
12155;SDS011;6141;49.092;8.516;2023-12-29T10:22:39;2.47;;;2.07;;
12155;SDS011;6141;49.092;8.516;2023-12-29T10:25:15;2.17;;;1.83;;
12155;SDS011;6141;49.092;8.516;2023-12-29T10:27:44;2.13;;;1.80;;
12155;SDS011;6141;49.092;8.516;2023-12-29T10:30:13;2.20;;;2.00;;
12155;SDS011;6141;49.092;8.516;2023-12-29T10:32:53;1.67;;;1.50;;
12155;SDS011;6141;49.092;8.516;2023-12-29T10:35:24;1.60;;;1.50;;
12155;SDS011;6141;49.092;8.516;2023-12-29T10:37:53;2.10;;;1.60;;
12155;SDS011;6141;49.092;8.516;2023-12-29T10:40:22;1.93;;;1.30;;
12155;SDS011;6141;49.092;8.516;2023-12-29T10:42:53;1.87;;;1.43;;
12155;SDS011;6141;49.092;8.516;2023-12-29T10:45:24;1.50;;;1.30;;
12155;SDS011;6141;49.092;8.516;2023-12-29T10:47:52;2.13;;;1.40;;
12155;SDS011;6141;49.092;8.516;2023-12-29T10:50:21;2.60;;;1.43;;
12155;SDS011;6141;49.092;8.516;2023-12-29T10:52:51;1.63;;;1.53;;
12155;SDS011;6141;49.092;8.516;2023-12-29T10:55:19;2.00;;;1.63;;
12155;SDS011;6141;49.092;8.516;2023-12-29T10:57:51;2.13;;;1.70;;
12155;SDS011;6141;49.092;8.516;2023-12-29T11:00:29;1.83;;;1.60;;
12155;SDS011;6141;49.092;8.516;2023-12-29T11:02:57;1.67;;;1.53;;
12155;SDS011;6141;49.092;8.516;2023-12-29T11:05:27;2.17;;;1.43;;
12155;SDS011;6141;49.092;8.516;2023-12-29T11:07:56;1.70;;;1.50;;
12155;SDS011;6141;49.092;8.516;2023-12-29T11:10:25;1.50;;;1.40;;
12155;SDS011;6141;49.092;8.516;2023-12-29T11:12:54;2.03;;;1.70;;
12155;SDS011;6141;49.092;8.516;2023-12-29T11:15:24;2.40;;;1.80;;
12155;SDS011;6141;49.092;8.516;2023-12-29T11:17:52;1.97;;;1.83;;
12155;SDS011;6141;49.092;8.516;2023-12-29T11:20:23;1.80;;;1.70;;
12155;SDS011;6141;49.092;8.516;2023-12-29T11:22:53;1.70;;;1.60;;
12155;SDS011;6141;49.092;8.516;2023-12-29T11:25:25;2.57;;;2.07;;
12155;SDS011;6141;49.092;8.516;2023-12-29T11:27:55;1.50;;;1.40;;
12155;SDS011;6141;49.092;8.516;2023-12-29T11:30:28;2.37;;;1.50;;
12155;SDS011;6141;49.092;8.516;2023-12-29T11:32:57;2.03;;;1.77;;
12155;SDS011;6141;49.092;8.516;2023-12-29T11:35:32;1.60;;;1.50;;
12155;SDS011;6141;49.092;8.516;2023-12-29T11:38:10;1.80;;;1.53;;
12155;SDS011;6141;49.092;8.516;2023-12-29T11:41:00;1.50;;;1.30;;
12155;SDS011;6141;49.092;8.516;2023-12-29T11:43:42;2.07;;;1.40;;
12155;SDS011;6141;49.092;8.516;2023-12-29T11:48:59;1.83;;;1.60;;
12155;SDS011;6141;49.092;8.516;2023-12-29T11:51:31;2.13;;;1.30;;
12155;SDS011;6141;49.092;8.516;2023-12-29T11:54:00;1.60;;;1.40;;
12155;SDS011;6141;49.092;8.516;2023-12-29T11:56:35;1.50;;;1.37;;
12155;SDS011;6141;49.092;8.516;2023-12-29T11:59:18;1.50;;;1.40;;
12155;SDS011;6141;49.092;8.516;2023-12-29T12:01:47;1.60;;;1.50;;
12155;SDS011;6141;49.092;8.516;2023-12-29T12:04:38;1.90;;;1.50;;
12155;SDS011;6141;49.092;8.516;2023-12-29T12:07:12;1.27;;;1.17;;
12155;SDS011;6141;49.092;8.516;2023-12-29T12:09:44;2.03;;;1.40;;
12155;SDS011;6141;49.092;8.516;2023-12-29T12:12:37;2.40;;;1.50;;
12155;SDS011;6141;49.092;8.516;2023-12-29T12:15:08;1.57;;;1.40;;
12155;SDS011;6141;49.092;8.516;2023-12-29T12:17:59;1.50;;;1.23;;
12155;SDS011;6141;49.092;8.516;2023-12-29T12:20:30;2.80;;;1.43;;
12155;SDS011;6141;49.092;8.516;2023-12-29T12:22:59;1.40;;;1.30;;
12155;SDS011;6141;49.092;8.516;2023-12-29T12:25:30;1.60;;;1.40;;
12155;SDS011;6141;49.092;8.516;2023-12-29T12:28:06;1.77;;;1.33;;
12155;SDS011;6141;49.092;8.516;2023-12-29T12:30:35;2.63;;;1.40;;
12155;SDS011;6141;49.092;8.516;2023-12-29T12:33:04;2.10;;;1.60;;
12155;SDS011;6141;49.092;8.516;2023-12-29T12:35:33;2.83;;;1.33;;
12155;SDS011;6141;49.092;8.516;2023-12-29T12:38:08;1.90;;;1.53;;
12155;SDS011;6141;49.092;8.516;2023-12-29T12:40:38;1.80;;;1.70;;
12155;SDS011;6141;49.092;8.516;2023-12-29T12:43:16;2.47;;;1.80;;
12155;SDS011;6141;49.092;8.516;2023-12-29T12:45:46;2.03;;;1.63;;
12155;SDS011;6141;49.092;8.516;2023-12-29T12:48:19;1.73;;;1.60;;
12155;SDS011;6141;49.092;8.516;2023-12-29T12:50:50;2.10;;;1.90;;
12155;SDS011;6141;49.092;8.516;2023-12-29T12:53:18;1.50;;;1.40;;
12155;SDS011;6141;49.092;8.516;2023-12-29T12:55:47;1.80;;;1.70;;
12155;SDS011;6141;49.092;8.516;2023-12-29T12:58:18;1.83;;;1.63;;
12155;SDS011;6141;49.092;8.516;2023-12-29T13:00:47;2.00;;;1.80;;
12155;SDS011;6141;49.092;8.516;2023-12-29T13:03:20;2.10;;;1.83;;
12155;SDS011;6141;49.092;8.516;2023-12-29T13:05:49;1.90;;;1.37;;
12155;SDS011;6141;49.092;8.516;2023-12-29T13:08:18;1.70;;;1.60;;
12155;SDS011;6141;49.092;8.516;2023-12-29T13:10:59;2.00;;;1.70;;
12155;SDS011;6141;49.092;8.516;2023-12-29T13:13:36;2.70;;;1.80;;
12155;SDS011;6141;49.092;8.516;2023-12-29T13:16:05;3.43;;;1.50;;
12155;SDS011;6141;49.092;8.516;2023-12-29T13:18:34;2.50;;;1.80;;
12155;SDS011;6141;49.092;8.516;2023-12-29T13:21:03;1.97;;;1.47;;
12155;SDS011;6141;49.092;8.516;2023-12-29T13:23:32;1.93;;;1.30;;
12155;SDS011;6141;49.092;8.516;2023-12-29T13:26:02;1.57;;;1.30;;
12155;SDS011;6141;49.092;8.516;2023-12-29T13:28:33;2.47;;;1.47;;
12155;SDS011;6141;49.092;8.516;2023-12-29T13:31:07;1.80;;;1.60;;
12155;SDS011;6141;49.092;8.516;2023-12-29T13:33:41;1.97;;;1.40;;
12155;SDS011;6141;49.092;8.516;2023-12-29T13:36:18;1.63;;;1.53;;
12155;SDS011;6141;49.092;8.516;2023-12-29T13:38:53;1.73;;;1.40;;
12155;SDS011;6141;49.092;8.516;2023-12-29T13:41:25;1.53;;;1.30;;
12155;SDS011;6141;49.092;8.516;2023-12-29T13:43:58;1.57;;;1.30;;
12155;SDS011;6141;49.092;8.516;2023-12-29T13:46:29;1.60;;;1.37;;
12155;SDS011;6141;49.092;8.516;2023-12-29T13:48:58;1.87;;;1.30;;
12155;SDS011;6141;49.092;8.516;2023-12-29T13:51:27;1.20;;;1.10;;
12155;SDS011;6141;49.092;8.516;2023-12-29T13:53:58;1.80;;;1.47;;
12155;SDS011;6141;49.092;8.516;2023-12-29T13:56:27;2.17;;;1.50;;
12155;SDS011;6141;49.092;8.516;2023-12-29T13:58:55;1.67;;;1.50;;
12155;SDS011;6141;49.092;8.516;2023-12-29T14:01:23;2.00;;;1.70;;
12155;SDS011;6141;49.092;8.516;2023-12-29T14:03:59;1.60;;;1.50;;
12155;SDS011;6141;49.092;8.516;2023-12-29T14:06:31;1.63;;;1.40;;
12155;SDS011;6141;49.092;8.516;2023-12-29T14:09:13;2.17;;;1.37;;
12155;SDS011;6141;49.092;8.516;2023-12-29T14:11:44;2.47;;;1.63;;
12155;SDS011;6141;49.092;8.516;2023-12-29T14:14:12;1.90;;;1.43;;
12155;SDS011;6141;49.092;8.516;2023-12-29T14:16:41;2.30;;;1.40;;
12155;SDS011;6141;49.092;8.516;2023-12-29T14:19:11;1.80;;;1.40;;
12155;SDS011;6141;49.092;8.516;2023-12-29T14:21:39;1.73;;;1.30;;
12155;SDS011;6141;49.092;8.516;2023-12-29T14:24:08;1.67;;;1.07;;
12155;SDS011;6141;49.092;8.516;2023-12-29T14:26:37;1.30;;;1.20;;
12155;SDS011;6141;49.092;8.516;2023-12-29T14:29:07;1.20;;;1.10;;
12155;SDS011;6141;49.092;8.516;2023-12-29T14:31:38;1.90;;;1.40;;
12155;SDS011;6141;49.092;8.516;2023-12-29T14:34:07;1.80;;;1.43;;
12155;SDS011;6141;49.092;8.516;2023-12-29T14:36:39;1.30;;;1.20;;
12155;SDS011;6141;49.092;8.516;2023-12-29T14:39:08;1.50;;;1.40;;
12155;SDS011;6141;49.092;8.516;2023-12-29T14:41:38;1.97;;;1.40;;
12155;SDS011;6141;49.092;8.516;2023-12-29T14:44:06;1.43;;;1.30;;
12155;SDS011;6141;49.092;8.516;2023-12-29T14:46:35;1.43;;;1.20;;
12155;SDS011;6141;49.092;8.516;2023-12-29T14:49:03;2.70;;;1.20;;
12155;SDS011;6141;49.092;8.516;2023-12-29T14:51:32;1.67;;;1.50;;
12155;SDS011;6141;49.092;8.516;2023-12-29T14:54:02;2.03;;;1.27;;
12155;SDS011;6141;49.092;8.516;2023-12-29T14:56:30;1.50;;;1.30;;
12155;SDS011;6141;49.092;8.516;2023-12-29T14:58:58;2.67;;;1.40;;
12155;SDS011;6141;49.092;8.516;2023-12-29T15:01:27;2.10;;;1.40;;
12155;SDS011;6141;49.092;8.516;2023-12-29T15:03:55;2.20;;;1.47;;
12155;SDS011;6141;49.092;8.516;2023-12-29T15:06:24;2.17;;;1.40;;
12155;SDS011;6141;49.092;8.516;2023-12-29T15:08:52;2.17;;;1.30;;
12155;SDS011;6141;49.092;8.516;2023-12-29T15:11:21;1.57;;;1.40;;
12155;SDS011;6141;49.092;8.516;2023-12-29T15:13:49;2.00;;;1.40;;
12155;SDS011;6141;49.092;8.516;2023-12-29T15:16:17;3.63;;;1.50;;
12155;SDS011;6141;49.092;8.516;2023-12-29T15:18:46;1.60;;;1.40;;